Kiyoyasumaru — JD4054 — position and weather

sailwx.info

Track history (hours):
 
Tides and Currents Weather Stations Pressure Air Temp Water Temp Dewpoint Dewpoint Depression Visibility Wind Speed Wind Dir Waves Ship Positions

Kiyoyasumaru

Last reported at 2018-Feb-22 11:00 UTC. Time now 2018-Feb-22 11:12 UTC.
Position N 33°57' E 131°14'.

Length 148 m; draft 6.5 m.

Type: Cargo ship. MMSI: 431008495.

Date/timePositionNaut miles runAvg speedWind from/ knotsBaromVisibWave heightAir tempDewpointWater temp
2018-Feb-22 11:00N 33°57' E 131°14'0 0.0
2018-Feb-22 10:27N 33°57' E 131°14'0 0.0
2018-Feb-22 09:57N 33°57' E 131°14'0 0.0
2018-Feb-22 09:30N 33°57' E 131°14'0 0.0
2018-Feb-22 09:00N 33°57' E 131°14'0 0.0
2018-Feb-22 08:15N 33°57' E 131°14'0 0.0
2018-Feb-22 07:57N 33°57' E 131°14'0 0.8
2018-Feb-22 07:30N 33°57' E 131°14'0 0.3
2018-Feb-22 06:53N 33°57' E 131°14'0 0.0
2018-Feb-22 06:30N 33°57' E 131°14'0 0.0
2018-Feb-22 05:59N 33°57' E 131°14'0 0.0
2018-Feb-22 05:29N 33°57' E 131°14'0 0.0
2018-Feb-22 05:00N 33°57' E 131°14'0 0.0
2018-Feb-22 04:29N 33°57' E 131°14'0 0.0
2018-Feb-22 04:00N 33°57' E 131°14'0 0.0
2018-Feb-22 03:30N 33°57' E 131°14'0 0.0
2018-Feb-22 02:57N 33°57' E 131°14'0 0.0
2018-Feb-22 02:29N 33°57' E 131°14'0 0.0
2018-Feb-22 01:59N 33°57' E 131°14'0 0.0
2018-Feb-22 01:29N 33°57' E 131°14'0 0.0
2018-Feb-22 00:59N 33°57' E 131°14'0 0.0
2018-Feb-22 00:29N 33°57' E 131°14'1 1.7
2018-Feb-22 00:01N 33°56' E 131°14'3 6.5
2018-Feb-21 23:30N 33°53' E 131°13'0 0.1
2018-Feb-21 23:00N 33°53' E 131°13'0 0.0
2018-Feb-21 22:29N 33°53' E 131°13'0 0.0
2018-Feb-21 22:00N 33°53' E 131°13'0 0.0
2018-Feb-21 21:30N 33°53' E 131°13'0 0.0
2018-Feb-21 21:00N 33°53' E 131°13'0 0.0
2018-Feb-21 20:30N 33°53' E 131°13'0 0.0
2018-Feb-21 20:00N 33°53' E 131°13'0 0.0
2018-Feb-21 19:30N 33°53' E 131°13'0 0.0
2018-Feb-21 19:00N 33°53' E 131°13'0 0.0
2018-Feb-21 18:30N 33°53' E 131°13'0 0.0
2018-Feb-21 18:00N 33°53' E 131°13'0 0.0
2018-Feb-21 17:30N 33°53' E 131°13'1 1.7
2018-Feb-21 17:00N 33°52' E 131°14'612.3
2018-Feb-21 16:30N 33°51' E 131°21'713.7
2018-Feb-21 16:00N 33°49' E 131°29'713.8
2018-Feb-21 15:30N 33°48' E 131°37'713.3
2018-Feb-21 15:00N 33°44' E 131°44'714.0
2018-Feb-21 14:30N 33°39' E 131°49'714.2
2018-Feb-21 14:01N 33°33' E 131°54'714.1
2018-Feb-21 13:30N 33°28' E 131°59'4 8.3
2018-Feb-21 12:58N 33°23' E 131°60'612.5
2018-Feb-21 12:27N 33°17' E 132°02'614.2
2018-Feb-21 12:00N 33°12' E 132°06'6210.8
2018-Feb-21 06:15N 32°46' E 133°14'9813.4
2018-Feb-20 22:59N 33°29' E 134°59'713.2
2018-Feb-20 22:29N 33°29' E 135°06'713.0
2018-Feb-20 21:58N 33°30' E 135°15'813.1
2018-Feb-20 21:20N 33°29' E 135°25'5112.9
2018-Feb-20 17:23N 33°42' E 136°24'513.4
2018-Feb-20 16:59N 33°45' E 136°29'9013.3
2018-Feb-20 10:10N 34°27' E 138°06'211.5
2018-Feb-20 09:58N 34°28' E 138°08'612.0
2018-Feb-20 09:29N 34°30' E 138°15'712.0
2018-Feb-20 08:56N 34°30' E 138°23'512.3
2018-Feb-20 08:30N 34°31' E 138°29'612.3
2018-Feb-20 08:00N 34°31' E 138°37'612.9
2018-Feb-20 07:30N 34°31' E 138°45'713.0
2018-Feb-20 07:00N 34°31' E 138°53'612.8
2018-Feb-20 06:30N 34°32' E 139°00'612.4
2018-Feb-20 06:00N 34°33' E 139°07'612.1
2018-Feb-20 05:30N 34°35' E 139°14'612.9
2018-Feb-20 05:00N 34°37' E 139°22'612.7
2018-Feb-20 04:30N 34°38' E 139°29'612.2
2018-Feb-20 04:00N 34°41' E 139°36'612.5
2018-Feb-20 03:30N 34°43' E 139°44'913.5
2018-Feb-20 02:50N 34°45' E 139°54'513.3
2018-Feb-20 02:26N 34°47' E 140°00'613.2
2018-Feb-20 02:01N 34°49' E 140°07'713.1
2018-Feb-20 01:30N 34°51' E 140°14'1611.0
2018-Feb-20 00:04N 35°01' E 140°29'112.2
2018-Feb-20 00:00N 35°02' E 140°29'53 1.1
2018-Feb-18 00:35N 34°40' E 139°31'113.4
2018-Feb-18 00:29N 34°39' E 139°29'1112.8
2018-Feb-17 23:40N 34°36' E 139°17'313.1
2018-Feb-17 23:25N 34°34' E 139°14'613.1
2018-Feb-17 22:58N 34°32' E 139°07'613.4
2018-Feb-17 22:30N 34°30' E 138°60'1813.5
2018-Feb-17 21:12N 34°28' E 138°39'314.3
2018-Feb-17 20:58N 34°27' E 138°35'713.9
2018-Feb-17 20:27N 34°26' E 138°26'714.5
2018-Feb-17 19:59N 34°26' E 138°18'32112.0
2018-Feb-16 17:21N 33°12' E 132°02'515.5
2018-Feb-16 17:00N 33°17' E 131°60'815.7
2018-Feb-16 16:30N 33°24' E 131°55'815.2
2018-Feb-16 16:00N 33°31' E 131°51'815.2
2018-Feb-16 15:30N 33°38' E 131°47'714.6
2018-Feb-16 15:00N 33°45' E 131°44'713.7
2018-Feb-16 14:30N 33°47' E 131°36'714.1
2018-Feb-16 14:00N 33°48' E 131°27'713.8
2018-Feb-16 13:30N 33°50' E 131°19'612.1
2018-Feb-16 13:00N 33°53' E 131°13'4 8.4
2018-Feb-16 12:30N 33°57' E 131°14'0 0.1
2018-Feb-16 11:57N 33°57' E 131°14'0 0.0
2018-Feb-16 11:30N 33°57' E 131°14'0 0.0
2018-Feb-16 11:00N 33°57' E 131°14'0 0.0
2018-Feb-16 10:27N 33°57' E 131°14'0 0.0
2018-Feb-16 10:00N 33°57' E 131°14'0 0.0
2018-Feb-16 09:27N 33°57' E 131°14'0 0.0
2018-Feb-16 08:57N 33°57' E 131°14'0 0.0
2018-Feb-16 08:27N 33°57' E 131°14'0 0.0
2018-Feb-16 07:57N 33°57' E 131°14'0 0.0
2018-Feb-16 07:24N 33°57' E 131°14'0 0.0
2018-Feb-16 06:57N 33°57' E 131°14'0 0.0
2018-Feb-16 06:27N 33°57' E 131°14'0 0.0
2018-Feb-16 05:57N 33°57' E 131°14'0 0.1
2018-Feb-16 05:31N 33°57' E 131°14'2 4.5
2018-Feb-16 05:01N 33°55' E 131°13'1 1.8
2018-Feb-16 04:30N 33°54' E 131°13'0 0.0
2018-Feb-16 04:00N 33°54' E 131°13'0 0.0
2018-Feb-16 03:30N 33°54' E 131°13'3 5.2
2018-Feb-16 03:00N 33°57' E 131°14'0 0.0
2018-Feb-16 02:30N 33°57' E 131°14'0 0.0
2018-Feb-16 01:57N 33°57' E 131°14'0 0.0
2018-Feb-16 01:30N 33°57' E 131°14'0 0.0
2018-Feb-16 01:00N 33°57' E 131°14'0 0.0
2018-Feb-16 00:30N 33°57' E 131°14'0 0.0
2018-Feb-16 00:00N 33°57' E 131°14'0 0.0
2018-Feb-15 23:18N 33°57' E 131°14'0 0.0
2018-Feb-15 23:00N 33°57' E 131°14'0 0.0
2018-Feb-15 22:30N 33°57' E 131°14'0 0.0
2018-Feb-15 22:00N 33°57' E 131°14'0 0.0
2018-Feb-15 21:30N 33°57' E 131°14'0 0.0
2018-Feb-15 21:00N 33°57' E 131°14'0 0.0
2018-Feb-15 20:30N 33°57' E 131°14'0 0.0
2018-Feb-15 20:00N 33°57' E 131°14'0 0.0
2018-Feb-15 19:30N 33°57' E 131°14'0 0.0
2018-Feb-15 19:00N 33°57' E 131°14'0 0.0
2018-Feb-15 18:30N 33°57' E 131°14'0 0.0
2018-Feb-15 18:00N 33°57' E 131°14'0 0.0
2018-Feb-15 17:30N 33°57' E 131°14'0 0.0
2018-Feb-15 17:00N 33°57' E 131°14'0 0.0
2018-Feb-15 16:30N 33°57' E 131°14'0 0.0
2018-Feb-15 16:00N 33°57' E 131°14'0 0.0
2018-Feb-15 15:30N 33°57' E 131°14'0 0.0
2018-Feb-15 15:00N 33°57' E 131°14'0 0.0
2018-Feb-15 14:30N 33°57' E 131°14'0 0.0
2018-Feb-15 14:00N 33°57' E 131°14'0 0.0
2018-Feb-15 13:30N 33°57' E 131°14'0 0.0
2018-Feb-15 13:00N 33°57' E 131°14'0 0.0
2018-Feb-15 12:30N 33°57' E 131°14'0 0.0
2018-Feb-15 12:00N 33°57' E 131°14'0 0.0
2018-Feb-15 11:27N 33°57' E 131°14'0 0.0
2018-Feb-15 11:00N 33°57' E 131°14'0 0.0
2018-Feb-15 10:30N 33°57' E 131°14'0 0.0
2018-Feb-15 10:00N 33°57' E 131°14'0 0.0
2018-Feb-15 09:30N 33°57' E 131°14'0 0.1
2018-Feb-15 09:00N 33°57' E 131°14'3 5.1
2018-Feb-15 08:30N 33°54' E 131°13'0 0.2
2018-Feb-15 07:59N 33°54' E 131°13'0 0.0
2018-Feb-15 07:29N 33°54' E 131°13'0 0.0
2018-Feb-15 07:00N 33°54' E 131°13'0 0.0
2018-Feb-15 06:30N 33°54' E 131°13'2 3.5
2018-Feb-15 06:01N 33°52' E 131°14'612.8
2018-Feb-15 05:31N 33°51' E 131°21'713.2
2018-Feb-15 05:00N 33°49' E 131°29'612.9
2018-Feb-15 04:31N 33°48' E 131°37'612.3
2018-Feb-15 04:00N 33°46' E 131°44'612.3
2018-Feb-15 03:30N 33°41' E 131°47'712.3
2018-Feb-15 02:58N 33°35' E 131°51'612.7
2018-Feb-15 02:31N 33°30' E 131°55'712.9
2018-Feb-15 01:56N 33°23' E 131°57'512.3
2018-Feb-15 01:31N 33°19' E 132°01'713.5
2018-Feb-15 01:00N 33°13' E 132°05'13310.5
2018-Feb-14 12:16N 33°38' E 134°42'412.9
2018-Feb-14 12:00N 33°41' E 134°44'713.5
2018-Feb-14 11:30N 33°47' E 134°49'713.3
2018-Feb-14 11:00N 33°53' E 134°52'713.6
2018-Feb-14 10:30N 33°59' E 134°54'713.6
2018-Feb-14 10:00N 34°06' E 134°55'713.5
2018-Feb-14 09:30N 34°12' E 134°57'713.3
2018-Feb-14 09:00N 34°19' E 134°59'713.0
2018-Feb-14 08:30N 34°24' E 135°04'713.5
2018-Feb-14 08:00N 34°29' E 135°10'713.4
2018-Feb-14 07:30N 34°33' E 135°16'613.1
2018-Feb-14 07:00N 34°37' E 135°22'4 8.4
2018-Feb-14 06:31N 34°39' E 135°27'0 0.4
2018-Feb-14 05:59N 34°39' E 135°27'0 0.0
2018-Feb-14 05:26N 34°39' E 135°27'0 0.0
2018-Feb-14 04:58N 34°39' E 135°27'0 0.0
2018-Feb-14 04:28N 34°39' E 135°27'0 0.0
2018-Feb-14 03:55N 34°39' E 135°27'0 0.0
2018-Feb-14 03:25N 34°39' E 135°27'0 0.0
2018-Feb-14 02:56N 34°39' E 135°27'0 0.0
2018-Feb-14 02:28N 34°39' E 135°27'0 0.0
2018-Feb-14 01:58N 34°39' E 135°27'0 0.0
2018-Feb-14 01:29N 34°39' E 135°27'0 0.0
2018-Feb-14 00:58N 34°39' E 135°27'0 0.0
2018-Feb-14 00:25N 34°39' E 135°27'0 0.0
2018-Feb-13 23:58N 34°39' E 135°27'0 0.0
2018-Feb-13 23:28N 34°39' E 135°27'0 0.0
2018-Feb-13 22:58N 34°39' E 135°27'0 0.0
2018-Feb-13 22:28N 34°39' E 135°27'0 0.0
2018-Feb-13 21:58N 34°39' E 135°27'0 0.0
2018-Feb-13 21:28N 34°39' E 135°27'0 0.0
2018-Feb-13 20:58N 34°39' E 135°27'0 0.0
2018-Feb-13 20:28N 34°39' E 135°27'0 0.0
2018-Feb-13 19:58N 34°39' E 135°27'0 0.0
2018-Feb-13 19:25N 34°39' E 135°27'0 0.0
2018-Feb-13 18:58N 34°39' E 135°27'0 0.0
2018-Feb-13 18:28N 34°39' E 135°27'0 0.0
2018-Feb-13 17:58N 34°39' E 135°27'0 0.0
2018-Feb-13 17:25N 34°39' E 135°27'0 0.0
2018-Feb-13 16:58N 34°39' E 135°27'0 0.0
2018-Feb-13 16:28N 34°39' E 135°27'0 0.0
2018-Feb-13 15:55N 34°39' E 135°27'0 0.0
2018-Feb-13 15:28N 34°39' E 135°27'0 0.0
2018-Feb-13 14:58N 34°39' E 135°27'0 0.0
2018-Feb-13 14:28N 34°39' E 135°27'0 0.0
2018-Feb-13 13:58N 34°39' E 135°27'0 0.0
2018-Feb-13 13:28N 34°39' E 135°27'0 0.0
2018-Feb-13 12:59N 34°39' E 135°27'0 0.0
2018-Feb-13 12:28N 34°39' E 135°27'0 0.0
2018-Feb-13 11:58N 34°39' E 135°27'0 0.0
2018-Feb-13 11:28N 34°39' E 135°27'0 0.0
2018-Feb-13 10:58N 34°39' E 135°27'0 0.0
2018-Feb-13 10:28N 34°39' E 135°27'0 0.0
2018-Feb-13 09:58N 34°39' E 135°27'0 0.0
2018-Feb-13 09:28N 34°39' E 135°27'0 0.0
2018-Feb-13 08:58N 34°39' E 135°27'0 0.0
2018-Feb-13 08:28N 34°39' E 135°27'0 0.0
2018-Feb-13 07:58N 34°39' E 135°27'0 0.0
2018-Feb-13 07:28N 34°39' E 135°27'0 0.0
2018-Feb-13 06:58N 34°39' E 135°27'0 0.0
2018-Feb-13 06:28N 34°39' E 135°27'0 0.0
2018-Feb-13 05:58N 34°39' E 135°27'1 2.1
2018-Feb-13 05:30N 34°39' E 135°26'4 7.7
2018-Feb-13 05:01N 34°37' E 135°22'4 7.8
2018-Feb-13 04:30N 34°33' E 135°23'3 5.0
2018-Feb-13 03:57N 34°33' E 135°26'0 0.0
2018-Feb-13 03:30N 34°33' E 135°26'0 0.0
2018-Feb-13 03:00N 34°33' E 135°26'0 0.0
2018-Feb-13 02:30N 34°33' E 135°26'0 0.0
2018-Feb-13 02:00N 34°33' E 135°26'0 0.0
2018-Feb-13 01:30N 34°33' E 135°26'0 0.0
2018-Feb-13 01:00N 34°33' E 135°26'0 0.1
2018-Feb-13 00:30N 34°33' E 135°26'2 4.4
2018-Feb-13 00:00N 34°33' E 135°24'5 9.3
2018-Feb-12 23:30N 34°33' E 135°18'0 0.4
2018-Feb-12 23:00N 34°33' E 135°18'0 0.0
2018-Feb-12 22:30N 34°33' E 135°18'0 0.0
2018-Feb-12 22:00N 34°33' E 135°18'0 0.0
2018-Feb-12 21:30N 34°33' E 135°18'0 0.0
2018-Feb-12 21:00N 34°33' E 135°18'0 0.0
2018-Feb-12 20:30N 34°33' E 135°18'0 0.0
2018-Feb-12 20:00N 34°33' E 135°18'0 0.0
2018-Feb-12 19:30N 34°33' E 135°18'0 0.0
2018-Feb-12 19:00N 34°33' E 135°18'0 0.7
2018-Feb-12 18:30N 34°33' E 135°18'611.2
2018-Feb-12 18:00N 34°34' E 135°11'713.4
2018-Feb-12 17:30N 34°36' E 135°03'612.8
2018-Feb-12 17:00N 34°35' E 134°55'714.1
2018-Feb-12 16:30N 34°32' E 134°48'713.1
2018-Feb-12 16:00N 34°30' E 134°40'612.8
2018-Feb-12 15:30N 34°27' E 134°33'612.7
2018-Feb-12 15:00N 34°25' E 134°26'912.8
2018-Feb-12 14:20N 34°24' E 134°15'  
Track history (hours):
 
Tides and Currents Weather Stations Pressure Air Temp Water Temp Dewpoint Dewpoint Depression Visibility Wind Speed Wind Dir Waves Ship Positions

Kiyoyasumaru

Last reported at 2018-Feb-22 11:00 UTC. Time now 2018-Feb-22 11:12 UTC.
Position N 33°57' E 131°14'.

Length 148 m; draft 6.5 m.

Type: Cargo ship. MMSI: 431008495.

Date/timePositionNaut miles runAvg speedWind from/ knotsBaromVisibWave heightAir tempDewpointWater temp
2018-Feb-22 11:00N 33°57' E 131°14'0 0.0
2018-Feb-22 10:27N 33°57' E 131°14'0 0.0
2018-Feb-22 09:57N 33°57' E 131°14'0 0.0
2018-Feb-22 09:30N 33°57' E 131°14'0 0.0
2018-Feb-22 09:00N 33°57' E 131°14'0 0.0
2018-Feb-22 08:15N 33°57' E 131°14'0 0.0
2018-Feb-22 07:57N 33°57' E 131°14'0 0.8
2018-Feb-22 07:30N 33°57' E 131°14'0 0.3
2018-Feb-22 06:53N 33°57' E 131°14'0 0.0
2018-Feb-22 06:30N 33°57' E 131°14'0 0.0
2018-Feb-22 05:59N 33°57' E 131°14'0 0.0
2018-Feb-22 05:29N 33°57' E 131°14'0 0.0
2018-Feb-22 05:00N 33°57' E 131°14'0 0.0
2018-Feb-22 04:29N 33°57' E 131°14'0 0.0
2018-Feb-22 04:00N 33°57' E 131°14'0 0.0
2018-Feb-22 03:30N 33°57' E 131°14'0 0.0
2018-Feb-22 02:57N 33°57' E 131°14'0 0.0
2018-Feb-22 02:29N 33°57' E 131°14'0 0.0
2018-Feb-22 01:59N 33°57' E 131°14'0 0.0
2018-Feb-22 01:29N 33°57' E 131°14'0 0.0
2018-Feb-22 00:59N 33°57' E 131°14'0 0.0
2018-Feb-22 00:29N 33°57' E 131°14'1 1.7
2018-Feb-22 00:01N 33°56' E 131°14'3 6.5
2018-Feb-21 23:30N 33°53' E 131°13'0 0.1
2018-Feb-21 23:00N 33°53' E 131°13'0 0.0
2018-Feb-21 22:29N 33°53' E 131°13'0 0.0
2018-Feb-21 22:00N 33°53' E 131°13'0 0.0
2018-Feb-21 21:30N 33°53' E 131°13'0 0.0
2018-Feb-21 21:00N 33°53' E 131°13'0 0.0
2018-Feb-21 20:30N 33°53' E 131°13'0 0.0
2018-Feb-21 20:00N 33°53' E 131°13'0 0.0
2018-Feb-21 19:30N 33°53' E 131°13'0 0.0
2018-Feb-21 19:00N 33°53' E 131°13'0 0.0
2018-Feb-21 18:30N 33°53' E 131°13'0 0.0
2018-Feb-21 18:00N 33°53' E 131°13'0 0.0
2018-Feb-21 17:30N 33°53' E 131°13'1 1.7
2018-Feb-21 17:00N 33°52' E 131°14'612.3
2018-Feb-21 16:30N 33°51' E 131°21'713.7
2018-Feb-21 16:00N 33°49' E 131°29'713.8
2018-Feb-21 15:30N 33°48' E 131°37'713.3
2018-Feb-21 15:00N 33°44' E 131°44'714.0
2018-Feb-21 14:30N 33°39' E 131°49'714.2
2018-Feb-21 14:01N 33°33' E 131°54'714.1
2018-Feb-21 13:30N 33°28' E 131°59'4 8.3
2018-Feb-21 12:58N 33°23' E 131°60'612.5
2018-Feb-21 12:27N 33°17' E 132°02'614.2
2018-Feb-21 12:00N 33°12' E 132°06'6210.8
2018-Feb-21 06:15N 32°46' E 133°14'9813.4
2018-Feb-20 22:59N 33°29' E 134°59'713.2
2018-Feb-20 22:29N 33°29' E 135°06'713.0
2018-Feb-20 21:58N 33°30' E 135°15'813.1
2018-Feb-20 21:20N 33°29' E 135°25'5112.9
2018-Feb-20 17:23N 33°42' E 136°24'513.4
2018-Feb-20 16:59N 33°45' E 136°29'9013.3
2018-Feb-20 10:10N 34°27' E 138°06'211.5
2018-Feb-20 09:58N 34°28' E 138°08'612.0
2018-Feb-20 09:29N 34°30' E 138°15'712.0
2018-Feb-20 08:56N 34°30' E 138°23'512.3
2018-Feb-20 08:30N 34°31' E 138°29'612.3
2018-Feb-20 08:00N 34°31' E 138°37'612.9
2018-Feb-20 07:30N 34°31' E 138°45'713.0
2018-Feb-20 07:00N 34°31' E 138°53'612.8
2018-Feb-20 06:30N 34°32' E 139°00'612.4
2018-Feb-20 06:00N 34°33' E 139°07'612.1
2018-Feb-20 05:30N 34°35' E 139°14'612.9
2018-Feb-20 05:00N 34°37' E 139°22'612.7
2018-Feb-20 04:30N 34°38' E 139°29'612.2
2018-Feb-20 04:00N 34°41' E 139°36'612.5
2018-Feb-20 03:30N 34°43' E 139°44'913.5
2018-Feb-20 02:50N 34°45' E 139°54'513.3
2018-Feb-20 02:26N 34°47' E 140°00'613.2
2018-Feb-20 02:01N 34°49' E 140°07'713.1
2018-Feb-20 01:30N 34°51' E 140°14'1611.0
2018-Feb-20 00:04N 35°01' E 140°29'112.2
2018-Feb-20 00:00N 35°02' E 140°29'53 1.1
2018-Feb-18 00:35N 34°40' E 139°31'113.4
2018-Feb-18 00:29N 34°39' E 139°29'1112.8
2018-Feb-17 23:40N 34°36' E 139°17'313.1
2018-Feb-17 23:25N 34°34' E 139°14'613.1
2018-Feb-17 22:58N 34°32' E 139°07'613.4
2018-Feb-17 22:30N 34°30' E 138°60'1813.5
2018-Feb-17 21:12N 34°28' E 138°39'314.3
2018-Feb-17 20:58N 34°27' E 138°35'713.9
2018-Feb-17 20:27N 34°26' E 138°26'714.5
2018-Feb-17 19:59N 34°26' E 138°18'32112.0
2018-Feb-16 17:21N 33°12' E 132°02'515.5
2018-Feb-16 17:00N 33°17' E 131°60'815.7
2018-Feb-16 16:30N 33°24' E 131°55'815.2
2018-Feb-16 16:00N 33°31' E 131°51'815.2
2018-Feb-16 15:30N 33°38' E 131°47'714.6
2018-Feb-16 15:00N 33°45' E 131°44'713.7
2018-Feb-16 14:30N 33°47' E 131°36'714.1
2018-Feb-16 14:00N 33°48' E 131°27'713.8
2018-Feb-16 13:30N 33°50' E 131°19'612.1
2018-Feb-16 13:00N 33°53' E 131°13'4 8.4
2018-Feb-16 12:30N 33°57' E 131°14'0 0.1
2018-Feb-16 11:57N 33°57' E 131°14'0 0.0
2018-Feb-16 11:30N 33°57' E 131°14'0 0.0
2018-Feb-16 11:00N 33°57' E 131°14'0 0.0
2018-Feb-16 10:27N 33°57' E 131°14'0 0.0
2018-Feb-16 10:00N 33°57' E 131°14'0 0.0
2018-Feb-16 09:27N 33°57' E 131°14'0 0.0
2018-Feb-16 08:57N 33°57' E 131°14'0 0.0
2018-Feb-16 08:27N 33°57' E 131°14'0 0.0
2018-Feb-16 07:57N 33°57' E 131°14'0 0.0
2018-Feb-16 07:24N 33°57' E 131°14'0 0.0
2018-Feb-16 06:57N 33°57' E 131°14'0 0.0
2018-Feb-16 06:27N 33°57' E 131°14'0 0.0
2018-Feb-16 05:57N 33°57' E 131°14'0 0.1
2018-Feb-16 05:31N 33°57' E 131°14'2 4.5
2018-Feb-16 05:01N 33°55' E 131°13'1 1.8
2018-Feb-16 04:30N 33°54' E 131°13'0 0.0
2018-Feb-16 04:00N 33°54' E 131°13'0 0.0
2018-Feb-16 03:30N 33°54' E 131°13'3 5.2
2018-Feb-16 03:00N 33°57' E 131°14'0 0.0
2018-Feb-16 02:30N 33°57' E 131°14'0 0.0
2018-Feb-16 01:57N 33°57' E 131°14'0 0.0
2018-Feb-16 01:30N 33°57' E 131°14'0 0.0
2018-Feb-16 01:00N 33°57' E 131°14'0 0.0
2018-Feb-16 00:30N 33°57' E 131°14'0 0.0
2018-Feb-16 00:00N 33°57' E 131°14'0 0.0
2018-Feb-15 23:18N 33°57' E 131°14'0 0.0
2018-Feb-15 23:00N 33°57' E 131°14'0 0.0
2018-Feb-15 22:30N 33°57' E 131°14'0 0.0
2018-Feb-15 22:00N 33°57' E 131°14'0 0.0
2018-Feb-15 21:30N 33°57' E 131°14'0 0.0
2018-Feb-15 21:00N 33°57' E 131°14'0 0.0
2018-Feb-15 20:30N 33°57' E 131°14'0 0.0
2018-Feb-15 20:00N 33°57' E 131°14'0 0.0
2018-Feb-15 19:30N 33°57' E 131°14'0 0.0
2018-Feb-15 19:00N 33°57' E 131°14'0 0.0
2018-Feb-15 18:30N 33°57' E 131°14'0 0.0
2018-Feb-15 18:00N 33°57' E 131°14'0 0.0
2018-Feb-15 17:30N 33°57' E 131°14'0 0.0
2018-Feb-15 17:00N 33°57' E 131°14'0 0.0
2018-Feb-15 16:30N 33°57' E 131°14'0 0.0
2018-Feb-15 16:00N 33°57' E 131°14'0 0.0
2018-Feb-15 15:30N 33°57' E 131°14'0 0.0
2018-Feb-15 15:00N 33°57' E 131°14'0 0.0
2018-Feb-15 14:30N 33°57' E 131°14'0 0.0
2018-Feb-15 14:00N 33°57' E 131°14'0 0.0
2018-Feb-15 13:30N 33°57' E 131°14'0 0.0
2018-Feb-15 13:00N 33°57' E 131°14'0 0.0
2018-Feb-15 12:30N 33°57' E 131°14'0 0.0
2018-Feb-15 12:00N 33°57' E 131°14'0 0.0
2018-Feb-15 11:27N 33°57' E 131°14'0 0.0
2018-Feb-15 11:00N 33°57' E 131°14'0 0.0
2018-Feb-15 10:30N 33°57' E 131°14'0 0.0
2018-Feb-15 10:00N 33°57' E 131°14'0 0.0
2018-Feb-15 09:30N 33°57' E 131°14'0 0.1
2018-Feb-15 09:00N 33°57' E 131°14'3 5.1
2018-Feb-15 08:30N 33°54' E 131°13'0 0.2
2018-Feb-15 07:59N 33°54' E 131°13'0 0.0
2018-Feb-15 07:29N 33°54' E 131°13'0 0.0
2018-Feb-15 07:00N 33°54' E 131°13'0 0.0
2018-Feb-15 06:30N 33°54' E 131°13'2 3.5
2018-Feb-15 06:01N 33°52' E 131°14'612.8
2018-Feb-15 05:31N 33°51' E 131°21'713.2
2018-Feb-15 05:00N 33°49' E 131°29'612.9
2018-Feb-15 04:31N 33°48' E 131°37'612.3
2018-Feb-15 04:00N 33°46' E 131°44'612.3
2018-Feb-15 03:30N 33°41' E 131°47'712.3
2018-Feb-15 02:58N 33°35' E 131°51'612.7
2018-Feb-15 02:31N 33°30' E 131°55'712.9
2018-Feb-15 01:56N 33°23' E 131°57'512.3
2018-Feb-15 01:31N 33°19' E 132°01'713.5
2018-Feb-15 01:00N 33°13' E 132°05'13310.5
2018-Feb-14 12:16N 33°38' E 134°42'412.9
2018-Feb-14 12:00N 33°41' E 134°44'713.5
2018-Feb-14 11:30N 33°47' E 134°49'713.3
2018-Feb-14 11:00N 33°53' E 134°52'713.6
2018-Feb-14 10:30N 33°59' E 134°54'713.6
2018-Feb-14 10:00N 34°06' E 134°55'713.5
2018-Feb-14 09:30N 34°12' E 134°57'713.3
2018-Feb-14 09:00N 34°19' E 134°59'713.0
2018-Feb-14 08:30N 34°24' E 135°04'713.5
2018-Feb-14 08:00N 34°29' E 135°10'713.4
2018-Feb-14 07:30N 34°33' E 135°16'613.1
2018-Feb-14 07:00N 34°37' E 135°22'4 8.4
2018-Feb-14 06:31N 34°39' E 135°27'0 0.4
2018-Feb-14 05:59N 34°39' E 135°27'0 0.0
2018-Feb-14 05:26N 34°39' E 135°27'0 0.0
2018-Feb-14 04:58N 34°39' E 135°27'0 0.0
2018-Feb-14 04:28N 34°39' E 135°27'0 0.0
2018-Feb-14 03:55N 34°39' E 135°27'0 0.0
2018-Feb-14 03:25N 34°39' E 135°27'0 0.0
2018-Feb-14 02:56N 34°39' E 135°27'0 0.0
2018-Feb-14 02:28N 34°39' E 135°27'0 0.0
2018-Feb-14 01:58N 34°39' E 135°27'0 0.0
2018-Feb-14 01:29N 34°39' E 135°27'0 0.0
2018-Feb-14 00:58N 34°39' E 135°27'0 0.0
2018-Feb-14 00:25N 34°39' E 135°27'0 0.0
2018-Feb-13 23:58N 34°39' E 135°27'0 0.0
2018-Feb-13 23:28N 34°39' E 135°27'0 0.0
2018-Feb-13 22:58N 34°39' E 135°27'0 0.0
2018-Feb-13 22:28N 34°39' E 135°27'0 0.0
2018-Feb-13 21:58N 34°39' E 135°27'0 0.0
2018-Feb-13 21:28N 34°39' E 135°27'0 0.0
2018-Feb-13 20:58N 34°39' E 135°27'0 0.0
2018-Feb-13 20:28N 34°39' E 135°27'0 0.0
2018-Feb-13 19:58N 34°39' E 135°27'0 0.0
2018-Feb-13 19:25N 34°39' E 135°27'0 0.0
2018-Feb-13 18:58N 34°39' E 135°27'0 0.0
2018-Feb-13 18:28N 34°39' E 135°27'0 0.0
2018-Feb-13 17:58N 34°39' E 135°27'0 0.0
2018-Feb-13 17:25N 34°39' E 135°27'0 0.0
2018-Feb-13 16:58N 34°39' E 135°27'0 0.0
2018-Feb-13 16:28N 34°39' E 135°27'0 0.0
2018-Feb-13 15:55N 34°39' E 135°27'0 0.0
2018-Feb-13 15:28N 34°39' E 135°27'0 0.0
2018-Feb-13 14:58N 34°39' E 135°27'0 0.0
2018-Feb-13 14:28N 34°39' E 135°27'0 0.0
2018-Feb-13 13:58N 34°39' E 135°27'0 0.0
2018-Feb-13 13:28N 34°39' E 135°27'0 0.0
2018-Feb-13 12:59N 34°39' E 135°27'0 0.0
2018-Feb-13 12:28N 34°39' E 135°27'0 0.0
2018-Feb-13 11:58N 34°39' E 135°27'0 0.0
2018-Feb-13 11:28N 34°39' E 135°27'0 0.0
2018-Feb-13 10:58N 34°39' E 135°27'0 0.0
2018-Feb-13 10:28N 34°39' E 135°27'0 0.0
2018-Feb-13 09:58N 34°39' E 135°27'0 0.0
2018-Feb-13 09:28N 34°39' E 135°27'0 0.0
2018-Feb-13 08:58N 34°39' E 135°27'0 0.0
2018-Feb-13 08:28N 34°39' E 135°27'0 0.0
2018-Feb-13 07:58N 34°39' E 135°27'0 0.0
2018-Feb-13 07:28N 34°39' E 135°27'0 0.0
2018-Feb-13 06:58N 34°39' E 135°27'0 0.0
2018-Feb-13 06:28N 34°39' E 135°27'0 0.0
2018-Feb-13 05:58N 34°39' E 135°27'1 2.1
2018-Feb-13 05:30N 34°39' E 135°26'4 7.7
2018-Feb-13 05:01N 34°37' E 135°22'4 7.8
2018-Feb-13 04:30N 34°33' E 135°23'3 5.0
2018-Feb-13 03:57N 34°33' E 135°26'0 0.0
2018-Feb-13 03:30N 34°33' E 135°26'0 0.0
2018-Feb-13 03:00N 34°33' E 135°26'0 0.0
2018-Feb-13 02:30N 34°33' E 135°26'0 0.0
2018-Feb-13 02:00N 34°33' E 135°26'0 0.0
2018-Feb-13 01:30N 34°33' E 135°26'0 0.0
2018-Feb-13 01:00N 34°33' E 135°26'0 0.1
2018-Feb-13 00:30N 34°33' E 135°26'2 4.4
2018-Feb-13 00:00N 34°33' E 135°24'5 9.3
2018-Feb-12 23:30N 34°33' E 135°18'0 0.4
2018-Feb-12 23:00N 34°33' E 135°18'0 0.0
2018-Feb-12 22:30N 34°33' E 135°18'0 0.0
2018-Feb-12 22:00N 34°33' E 135°18'0 0.0
2018-Feb-12 21:30N 34°33' E 135°18'0 0.0
2018-Feb-12 21:00N 34°33' E 135°18'0 0.0
2018-Feb-12 20:30N 34°33' E 135°18'0 0.0
2018-Feb-12 20:00N 34°33' E 135°18'0 0.0
2018-Feb-12 19:30N 34°33' E 135°18'0 0.0
2018-Feb-12 19:00N 34°33' E 135°18'0 0.7
2018-Feb-12 18:30N 34°33' E 135°18'611.2
2018-Feb-12 18:00N 34°34' E 135°11'713.4
2018-Feb-12 17:30N 34°36' E 135°03'612.8
2018-Feb-12 17:00N 34°35' E 134°55'714.1
2018-Feb-12 16:30N 34°32' E 134°48'713.1
2018-Feb-12 16:00N 34°30' E 134°40'612.8
2018-Feb-12 15:30N 34°27' E 134°33'612.7
2018-Feb-12 15:00N 34°25' E 134°26'912.8
2018-Feb-12 14:20N 34°24' E 134°15'  

Dump ship's entire track history